sensor_id;sensor_type;location;lat;lon;timestamp;temperature;humidity
29031;DHT22;16122;50.236;11.734;2023-03-21T00:01:12;16.40;60.40
29031;DHT22;16122;50.236;11.734;2023-03-21T00:03:38;16.40;60.30
29031;DHT22;16122;50.236;11.734;2023-03-21T00:06:09;16.40;60.30
29031;DHT22;16122;50.236;11.734;2023-03-21T00:08:36;16.40;60.30
29031;DHT22;16122;50.236;11.734;2023-03-21T00:11:04;16.40;60.20
29031;DHT22;16122;50.236;11.734;2023-03-21T00:13:31;16.40;60.20
29031;DHT22;16122;50.236;11.734;2023-03-21T00:16:05;16.30;60.10
29031;DHT22;16122;50.236;11.734;2023-03-21T00:18:31;16.30;60.70
29031;DHT22;16122;50.236;11.734;2023-03-21T00:21:04;16.40;60.10
29031;DHT22;16122;50.236;11.734;2023-03-21T00:23:31;16.40;60.00
29031;DHT22;16122;50.236;11.734;2023-03-21T00:25:57;16.30;59.90
29031;DHT22;16122;50.236;11.734;2023-03-21T00:28:24;16.40;60.00
29031;DHT22;16122;50.236;11.734;2023-03-21T00:30:50;16.40;60.10
29031;DHT22;16122;50.236;11.734;2023-03-21T00:33:19;16.30;59.90
29031;DHT22;16122;50.236;11.734;2023-03-21T00:35:48;16.30;59.90
29031;DHT22;16122;50.236;11.734;2023-03-21T00:38:17;16.30;59.90
29031;DHT22;16122;50.236;11.734;2023-03-21T00:40:43;16.30;59.90
29031;DHT22;16122;50.236;11.734;2023-03-21T00:43:10;16.30;59.90
29031;DHT22;16122;50.236;11.734;2023-03-21T00:45:43;16.30;59.80
29031;DHT22;16122;50.236;11.734;2023-03-21T00:48:10;16.30;59.80
29031;DHT22;16122;50.236;11.734;2023-03-21T00:50:36;16.30;59.80
29031;DHT22;16122;50.236;11.734;2023-03-21T00:53:04;16.30;59.80
29031;DHT22;16122;50.236;11.734;2023-03-21T00:55:30;16.30;59.80
29031;DHT22;16122;50.236;11.734;2023-03-21T00:57:56;16.30;59.70
29031;DHT22;16122;50.236;11.734;2023-03-21T01:00:23;16.30;59.60
29031;DHT22;16122;50.236;11.734;2023-03-21T01:02:49;16.30;59.70
29031;DHT22;16122;50.236;11.734;2023-03-21T01:05:29;16.30;59.70
29031;DHT22;16122;50.236;11.734;2023-03-21T01:08:16;16.30;59.70
29031;DHT22;16122;50.236;11.734;2023-03-21T01:10:45;16.40;59.70
29031;DHT22;16122;50.236;11.734;2023-03-21T01:13:13;16.30;59.60
29031;DHT22;16122;50.236;11.734;2023-03-21T01:15:47;16.30;59.60
29031;DHT22;16122;50.236;11.734;2023-03-21T01:18:15;16.30;59.50
29031;DHT22;16122;50.236;11.734;2023-03-21T01:20:42;16.30;59.50
29031;DHT22;16122;50.236;11.734;2023-03-21T01:23:09;16.30;59.50
29031;DHT22;16122;50.236;11.734;2023-03-21T01:25:35;16.30;59.50
29031;DHT22;16122;50.236;11.734;2023-03-21T01:28:02;16.30;59.50
29031;DHT22;16122;50.236;11.734;2023-03-21T01:30:28;16.30;59.50
29031;DHT22;16122;50.236;11.734;2023-03-21T01:32:54;16.30;59.50
29031;DHT22;16122;50.236;11.734;2023-03-21T01:35:20;16.30;59.40
29031;DHT22;16122;50.236;11.734;2023-03-21T01:37:46;16.30;59.40
29031;DHT22;16122;50.236;11.734;2023-03-21T01:40:26;16.30;59.40
29031;DHT22;16122;50.236;11.734;2023-03-21T01:43:05;16.30;59.30
29031;DHT22;16122;50.236;11.734;2023-03-21T01:49:13;16.30;59.30
29031;DHT22;16122;50.236;11.734;2023-03-21T01:51:57;16.30;59.30
29031;DHT22;16122;50.236;11.734;2023-03-21T01:54:29;16.30;59.30
29031;DHT22;16122;50.236;11.734;2023-03-21T01:56:58;16.30;59.20
29031;DHT22;16122;50.236;11.734;2023-03-21T01:59:32;16.30;59.20
29031;DHT22;16122;50.236;11.734;2023-03-21T02:02:15;16.30;59.20
29031;DHT22;16122;50.236;11.734;2023-03-21T02:05:01;16.30;59.20
29031;DHT22;16122;50.236;11.734;2023-03-21T02:07:34;16.30;59.20
29031;DHT22;16122;50.236;11.734;2023-03-21T02:10:06;16.30;59.20
29031;DHT22;16122;50.236;11.734;2023-03-21T02:12:35;16.30;59.20
29031;DHT22;16122;50.236;11.734;2023-03-21T02:15:02;16.30;59.20
29031;DHT22;16122;50.236;11.734;2023-03-21T02:26:50;16.30;59.10
29031;DHT22;16122;50.236;11.734;2023-03-21T02:37:21;16.30;59.10
29031;DHT22;16122;50.236;11.734;2023-03-21T02:46:25;16.20;59.00
29031;DHT22;16122;50.236;11.734;2023-03-21T02:49:36;16.30;59.10
29031;DHT22;16122;50.236;11.734;2023-03-21T02:52:02;16.30;58.90
29031;DHT22;16122;50.236;11.734;2023-03-21T02:54:30;16.30;58.90
29031;DHT22;16122;50.236;11.734;2023-03-21T02:56:58;16.30;58.90
29031;DHT22;16122;50.236;11.734;2023-03-21T02:59:26;16.30;58.90
29031;DHT22;16122;50.236;11.734;2023-03-21T03:01:55;16.20;58.80
29031;DHT22;16122;50.236;11.734;2023-03-21T03:04:24;16.20;58.80
29031;DHT22;16122;50.236;11.734;2023-03-21T03:15:46;16.20;58.70
29031;DHT22;16122;50.236;11.734;2023-03-21T03:18:26;16.20;58.80
29031;DHT22;16122;50.236;11.734;2023-03-21T03:26:16;16.20;58.70
29031;DHT22;16122;50.236;11.734;2023-03-21T03:28:47;16.20;58.60
29031;DHT22;16122;50.236;11.734;2023-03-21T03:31:22;16.20;58.60
29031;DHT22;16122;50.236;11.734;2023-03-21T03:33:55;16.20;58.70
29031;DHT22;16122;50.236;11.734;2023-03-21T03:36:29;16.20;58.70
29031;DHT22;16122;50.236;11.734;2023-03-21T03:39:11;16.20;58.70
29031;DHT22;16122;50.236;11.734;2023-03-21T03:41:50;16.20;58.70
29031;DHT22;16122;50.236;11.734;2023-03-21T03:44:17;16.20;58.60
29031;DHT22;16122;50.236;11.734;2023-03-21T03:46:57;16.20;58.60
29031;DHT22;16122;50.236;11.734;2023-03-21T03:49:28;16.20;58.60
29031;DHT22;16122;50.236;11.734;2023-03-21T03:52:21;16.20;58.60
29031;DHT22;16122;50.236;11.734;2023-03-21T03:54:55;16.20;58.50
29031;DHT22;16122;50.236;11.734;2023-03-21T03:57:25;16.20;58.40
29031;DHT22;16122;50.236;11.734;2023-03-21T03:59:52;16.20;58.40
29031;DHT22;16122;50.236;11.734;2023-03-21T04:02:29;16.20;58.40
29031;DHT22;16122;50.236;11.734;2023-03-21T04:04:59;16.20;58.40
29031;DHT22;16122;50.236;11.734;2023-03-21T04:07:26;16.20;58.40
29031;DHT22;16122;50.236;11.734;2023-03-21T04:09:55;16.20;58.40
29031;DHT22;16122;50.236;11.734;2023-03-21T04:12:21;16.20;58.40
29031;DHT22;16122;50.236;11.734;2023-03-21T04:15:16;16.20;58.40
29031;DHT22;16122;50.236;11.734;2023-03-21T04:17:48;16.20;58.40
29031;DHT22;16122;50.236;11.734;2023-03-21T04:20:15;16.20;58.40
29031;DHT22;16122;50.236;11.734;2023-03-21T04:22:41;16.20;58.30
29031;DHT22;16122;50.236;11.734;2023-03-21T04:25:07;16.20;58.30
29031;DHT22;16122;50.236;11.734;2023-03-21T04:27:34;16.20;58.30
29031;DHT22;16122;50.236;11.734;2023-03-21T04:30:19;16.20;58.30
29031;DHT22;16122;50.236;11.734;2023-03-21T04:32:50;16.20;58.20
29031;DHT22;16122;50.236;11.734;2023-03-21T04:35:19;16.20;58.20
29031;DHT22;16122;50.236;11.734;2023-03-21T04:37:46;16.20;58.20
29031;DHT22;16122;50.236;11.734;2023-03-21T04:40:14;16.20;58.20
29031;DHT22;16122;50.236;11.734;2023-03-21T04:42:43;16.20;58.10
29031;DHT22;16122;50.236;11.734;2023-03-21T04:45:11;16.20;58.20
29031;DHT22;16122;50.236;11.734;2023-03-21T04:47:38;16.20;58.10
29031;DHT22;16122;50.236;11.734;2023-03-21T04:50:04;16.20;58.10
29031;DHT22;16122;50.236;11.734;2023-03-21T04:52:30;16.20;58.10
29031;DHT22;16122;50.236;11.734;2023-03-21T04:54:56;16.20;58.00
29031;DHT22;16122;50.236;11.734;2023-03-21T04:57:22;16.20;58.10
29031;DHT22;16122;50.236;11.734;2023-03-21T04:59:48;16.20;58.10
29031;DHT22;16122;50.236;11.734;2023-03-21T05:02:14;16.20;58.40
29031;DHT22;16122;50.236;11.734;2023-03-21T05:04:42;16.20;58.20
29031;DHT22;16122;50.236;11.734;2023-03-21T05:07:08;16.20;58.20
29031;DHT22;16122;50.236;11.734;2023-03-21T05:09:33;16.20;58.20
29031;DHT22;16122;50.236;11.734;2023-03-21T05:11:59;16.20;58.30
29031;DHT22;16122;50.236;11.734;2023-03-21T05:14:28;16.20;58.30
29031;DHT22;16122;50.236;11.734;2023-03-21T05:16:54;16.20;58.30
29031;DHT22;16122;50.236;11.734;2023-03-21T05:19:27;16.20;58.40
29031;DHT22;16122;50.236;11.734;2023-03-21T05:22:07;16.20;58.40
29031;DHT22;16122;50.236;11.734;2023-03-21T05:24:34;16.20;58.60
29031;DHT22;16122;50.236;11.734;2023-03-21T05:27:06;16.20;58.50
29031;DHT22;16122;50.236;11.734;2023-03-21T05:29:39;16.20;58.60
29031;DHT22;16122;50.236;11.734;2023-03-21T05:32:06;16.20;58.80
29031;DHT22;16122;50.236;11.734;2023-03-21T05:34:32;16.20;58.90
29031;DHT22;16122;50.236;11.734;2023-03-21T05:36:59;16.20;59.00
29031;DHT22;16122;50.236;11.734;2023-03-21T05:39:34;16.20;59.00
29031;DHT22;16122;50.236;11.734;2023-03-21T05:42:05;16.20;59.00
29031;DHT22;16122;50.236;11.734;2023-03-21T05:44:31;16.20;59.00
29031;DHT22;16122;50.236;11.734;2023-03-21T05:46:58;16.20;59.10
29031;DHT22;16122;50.236;11.734;2023-03-21T05:49:33;16.20;59.10
29031;DHT22;16122;50.236;11.734;2023-03-21T05:52:01;16.20;59.10
29031;DHT22;16122;50.236;11.734;2023-03-21T05:54:27;16.20;59.10
29031;DHT22;16122;50.236;11.734;2023-03-21T05:56:53;16.20;59.10
29031;DHT22;16122;50.236;11.734;2023-03-21T05:59:29;16.20;59.20
29031;DHT22;16122;50.236;11.734;2023-03-21T06:01:56;16.20;59.20
29031;DHT22;16122;50.236;11.734;2023-03-21T06:04:22;16.20;59.10
29031;DHT22;16122;50.236;11.734;2023-03-21T06:06:48;16.20;59.20
29031;DHT22;16122;50.236;11.734;2023-03-21T06:09:15;16.20;59.10
29031;DHT22;16122;50.236;11.734;2023-03-21T06:11:49;16.20;59.00
29031;DHT22;16122;50.236;11.734;2023-03-21T06:14:23;16.20;59.00
29031;DHT22;16122;50.236;11.734;2023-03-21T06:17:25;16.20;58.90
29031;DHT22;16122;50.236;11.734;2023-03-21T06:19:56;16.20;58.90
29031;DHT22;16122;50.236;11.734;2023-03-21T06:22:27;16.20;58.90
29031;DHT22;16122;50.236;11.734;2023-03-21T06:24:53;16.20;58.90
29031;DHT22;16122;50.236;11.734;2023-03-21T06:27:19;16.30;58.90
29031;DHT22;16122;50.236;11.734;2023-03-21T06:29:55;16.20;58.80
29031;DHT22;16122;50.236;11.734;2023-03-21T06:32:23;16.20;58.80
29031;DHT22;16122;50.236;11.734;2023-03-21T06:34:55;16.30;58.80
29031;DHT22;16122;50.236;11.734;2023-03-21T06:37:20;16.20;58.60
29031;DHT22;16122;50.236;11.734;2023-03-21T06:39:46;16.20;58.50
29031;DHT22;16122;50.236;11.734;2023-03-21T06:42:13;16.30;58.60
29031;DHT22;16122;50.236;11.734;2023-03-21T06:44:39;16.30;58.50
29031;DHT22;16122;50.236;11.734;2023-03-21T06:47:10;16.30;58.60
29031;DHT22;16122;50.236;11.734;2023-03-21T06:49:37;16.20;58.40
29031;DHT22;16122;50.236;11.734;2023-03-21T06:52:08;16.30;58.40
29031;DHT22;16122;50.236;11.734;2023-03-21T06:54:34;16.30;58.40
29031;DHT22;16122;50.236;11.734;2023-03-21T06:57:07;16.30;58.40
29031;DHT22;16122;50.236;11.734;2023-03-21T06:59:34;16.30;58.30
29031;DHT22;16122;50.236;11.734;2023-03-21T07:02:28;16.30;58.30
29031;DHT22;16122;50.236;11.734;2023-03-21T07:05:16;16.30;58.40
29031;DHT22;16122;50.236;11.734;2023-03-21T07:07:42;16.30;58.20
29031;DHT22;16122;50.236;11.734;2023-03-21T07:10:09;16.30;58.20
29031;DHT22;16122;50.236;11.734;2023-03-21T07:12:51;16.30;58.20
29031;DHT22;16122;50.236;11.734;2023-03-21T07:15:30;16.30;58.20
29031;DHT22;16122;50.236;11.734;2023-03-21T07:17:57;16.30;58.20
29031;DHT22;16122;50.236;11.734;2023-03-21T07:20:22;16.30;58.20
29031;DHT22;16122;50.236;11.734;2023-03-21T07:22:48;16.30;58.10
29031;DHT22;16122;50.236;11.734;2023-03-21T07:25:14;16.30;58.10
29031;DHT22;16122;50.236;11.734;2023-03-21T07:27:41;16.30;58.10
29031;DHT22;16122;50.236;11.734;2023-03-21T07:30:09;16.30;58.10
29031;DHT22;16122;50.236;11.734;2023-03-21T07:32:35;16.30;58.10
29031;DHT22;16122;50.236;11.734;2023-03-21T07:35:04;16.30;57.90
29031;DHT22;16122;50.236;11.734;2023-03-21T07:37:30;16.30;57.70
29031;DHT22;16122;50.236;11.734;2023-03-21T07:39:57;16.30;57.80
29031;DHT22;16122;50.236;11.734;2023-03-21T07:42:24;16.30;57.80
29031;DHT22;16122;50.236;11.734;2023-03-21T07:44:57;16.30;57.80
29031;DHT22;16122;50.236;11.734;2023-03-21T07:47:23;16.30;57.80
29031;DHT22;16122;50.236;11.734;2023-03-21T07:49:49;16.30;57.60
29031;DHT22;16122;50.236;11.734;2023-03-21T07:52:15;16.30;57.70
29031;DHT22;16122;50.236;11.734;2023-03-21T07:54:41;16.30;57.70
29031;DHT22;16122;50.236;11.734;2023-03-21T07:57:07;16.30;57.60
29031;DHT22;16122;50.236;11.734;2023-03-21T07:59:33;16.30;57.60
29031;DHT22;16122;50.236;11.734;2023-03-21T08:01:59;16.30;57.70
29031;DHT22;16122;50.236;11.734;2023-03-21T08:04:24;16.30;57.50
29031;DHT22;16122;50.236;11.734;2023-03-21T08:06:50;16.30;57.60
29031;DHT22;16122;50.236;11.734;2023-03-21T08:09:16;16.30;57.40
29031;DHT22;16122;50.236;11.734;2023-03-21T08:11:42;16.30;57.50
29031;DHT22;16122;50.236;11.734;2023-03-21T08:14:08;16.30;57.50
29031;DHT22;16122;50.236;11.734;2023-03-21T08:16:33;16.30;57.50
29031;DHT22;16122;50.236;11.734;2023-03-21T08:18:59;16.30;57.50
29031;DHT22;16122;50.236;11.734;2023-03-21T08:21:25;16.30;57.40
29031;DHT22;16122;50.236;11.734;2023-03-21T08:23:52;16.30;57.50
29031;DHT22;16122;50.236;11.734;2023-03-21T08:26:18;16.30;57.50
29031;DHT22;16122;50.236;11.734;2023-03-21T08:28:45;16.30;57.50
29031;DHT22;16122;50.236;11.734;2023-03-21T08:31:12;16.30;57.50
29031;DHT22;16122;50.236;11.734;2023-03-21T08:33:38;16.30;57.40
29031;DHT22;16122;50.236;11.734;2023-03-21T08:36:05;16.30;57.40
29031;DHT22;16122;50.236;11.734;2023-03-21T08:38:31;16.30;57.30
29031;DHT22;16122;50.236;11.734;2023-03-21T08:40:59;16.30;57.20
29031;DHT22;16122;50.236;11.734;2023-03-21T08:43:26;16.30;57.20
29031;DHT22;16122;50.236;11.734;2023-03-21T08:45:52;16.30;57.20
29031;DHT22;16122;50.236;11.734;2023-03-21T08:48:18;16.30;57.30
29031;DHT22;16122;50.236;11.734;2023-03-21T08:50:44;16.30;57.20
29031;DHT22;16122;50.236;11.734;2023-03-21T08:53:10;16.40;57.30
29031;DHT22;16122;50.236;11.734;2023-03-21T08:55:37;16.30;57.20
29031;DHT22;16122;50.236;11.734;2023-03-21T08:58:04;16.30;57.10
29031;DHT22;16122;50.236;11.734;2023-03-21T09:00:30;16.30;57.00
29031;DHT22;16122;50.236;11.734;2023-03-21T09:02:56;16.40;57.00
29031;DHT22;16122;50.236;11.734;2023-03-21T09:05:24;16.30;57.00
29031;DHT22;16122;50.236;11.734;2023-03-21T09:07:51;16.40;57.00
29031;DHT22;16122;50.236;11.734;2023-03-21T09:10:20;16.40;57.00
29031;DHT22;16122;50.236;11.734;2023-03-21T09:12:47;16.40;57.30
29031;DHT22;16122;50.236;11.734;2023-03-21T09:15:13;16.40;57.30
29031;DHT22;16122;50.236;11.734;2023-03-21T09:17:40;16.40;57.20
29031;DHT22;16122;50.236;11.734;2023-03-21T09:20:12;16.40;57.30
29031;DHT22;16122;50.236;11.734;2023-03-21T09:22:46;16.40;57.30
29031;DHT22;16122;50.236;11.734;2023-03-21T09:25:14;16.40;57.30
29031;DHT22;16122;50.236;11.734;2023-03-21T09:27:41;16.40;57.40
29031;DHT22;16122;50.236;11.734;2023-03-21T09:30:16;16.50;57.40
29031;DHT22;16122;50.236;11.734;2023-03-21T09:32:42;16.40;57.30
29031;DHT22;16122;50.236;11.734;2023-03-21T09:35:11;16.50;57.30
29031;DHT22;16122;50.236;11.734;2023-03-21T09:37:37;16.50;57.30
29031;DHT22;16122;50.236;11.734;2023-03-21T09:40:15;16.50;57.30
29031;DHT22;16122;50.236;11.734;2023-03-21T09:45:36;16.50;57.20
29031;DHT22;16122;50.236;11.734;2023-03-21T09:48:14;16.50;57.30
29031;DHT22;16122;50.236;11.734;2023-03-21T09:50:42;16.50;57.20
29031;DHT22;16122;50.236;11.734;2023-03-21T09:53:18;16.50;57.20
29031;DHT22;16122;50.236;11.734;2023-03-21T09:55:46;16.60;57.20
29031;DHT22;16122;50.236;11.734;2023-03-21T09:58:27;16.50;57.10
29031;DHT22;16122;50.236;11.734;2023-03-21T10:01:26;16.60;57.20
29031;DHT22;16122;50.236;11.734;2023-03-21T10:04:05;16.50;57.10
29031;DHT22;16122;50.236;11.734;2023-03-21T10:06:34;16.60;57.30
29031;DHT22;16122;50.236;11.734;2023-03-21T10:09:16;16.60;57.30
29031;DHT22;16122;50.236;11.734;2023-03-21T10:12:02;16.60;57.30
29031;DHT22;16122;50.236;11.734;2023-03-21T10:14:35;16.60;57.30
29031;DHT22;16122;50.236;11.734;2023-03-21T10:19:54;16.60;57.40
29031;DHT22;16122;50.236;11.734;2023-03-21T10:22:21;16.60;57.40
29031;DHT22;16122;50.236;11.734;2023-03-21T10:24:47;16.60;57.40
29031;DHT22;16122;50.236;11.734;2023-03-21T10:27:13;16.70;57.60
29031;DHT22;16122;50.236;11.734;2023-03-21T10:29:41;16.60;57.40
29031;DHT22;16122;50.236;11.734;2023-03-21T10:32:14;16.60;57.50
29031;DHT22;16122;50.236;11.734;2023-03-21T10:34:47;16.60;57.50
29031;DHT22;16122;50.236;11.734;2023-03-21T10:37:13;16.70;57.60
29031;DHT22;16122;50.236;11.734;2023-03-21T10:39:41;16.70;57.50
29031;DHT22;16122;50.236;11.734;2023-03-21T10:42:34;16.70;57.40
29031;DHT22;16122;50.236;11.734;2023-03-21T10:45:01;16.70;57.50
29031;DHT22;16122;50.236;11.734;2023-03-21T10:47:30;16.70;57.40
29031;DHT22;16122;50.236;11.734;2023-03-21T10:50:06;16.70;57.40
29031;DHT22;16122;50.236;11.734;2023-03-21T10:52:34;16.70;57.40
29031;DHT22;16122;50.236;11.734;2023-03-21T10:57:37;16.70;57.40
29031;DHT22;16122;50.236;11.734;2023-03-21T11:00:04;16.80;57.40
29031;DHT22;16122;50.236;11.734;2023-03-21T11:02:40;16.70;57.40
29031;DHT22;16122;50.236;11.734;2023-03-21T11:05:20;16.80;57.50
29031;DHT22;16122;50.236;11.734;2023-03-21T11:07:58;16.80;57.50
29031;DHT22;16122;50.236;11.734;2023-03-21T11:10:33;16.80;57.40
29031;DHT22;16122;50.236;11.734;2023-03-21T11:13:15;16.80;57.40
29031;DHT22;16122;50.236;11.734;2023-03-21T11:15:54;16.80;57.50
29031;DHT22;16122;50.236;11.734;2023-03-21T11:18:26;16.80;57.40
29031;DHT22;16122;50.236;11.734;2023-03-21T11:20:57;16.80;57.50
29031;DHT22;16122;50.236;11.734;2023-03-21T11:23:27;16.80;57.50
29031;DHT22;16122;50.236;11.734;2023-03-21T11:25:54;16.80;57.50
29031;DHT22;16122;50.236;11.734;2023-03-21T11:28:24;16.80;57.60
29031;DHT22;16122;50.236;11.734;2023-03-21T11:31:01;16.90;57.80
29031;DHT22;16122;50.236;11.734;2023-03-21T11:33:34;16.80;57.80
29031;DHT22;16122;50.236;11.734;2023-03-21T11:36:31;16.90;58.00
29031;DHT22;16122;50.236;11.734;2023-03-21T11:41:39;16.90;58.10
29031;DHT22;16122;50.236;11.734;2023-03-21T11:44:04;16.90;58.10
29031;DHT22;16122;50.236;11.734;2023-03-21T11:46:31;16.90;58.10
29031;DHT22;16122;50.236;11.734;2023-03-21T11:49:04;16.90;58.10
29031;DHT22;16122;50.236;11.734;2023-03-21T11:54:13;16.90;58.10
29031;DHT22;16122;50.236;11.734;2023-03-21T11:56:59;16.90;58.20
29031;DHT22;16122;50.236;11.734;2023-03-21T11:59:58;16.90;58.30
29031;DHT22;16122;50.236;11.734;2023-03-21T12:06:16;17.00;58.40
29031;DHT22;16122;50.236;11.734;2023-03-21T12:08:22;17.00;58.40
29031;DHT22;16122;50.236;11.734;2023-03-21T12:19:03;17.00;58.60
29031;DHT22;16122;50.236;11.734;2023-03-21T12:24:23;17.00;58.60
29031;DHT22;16122;50.236;11.734;2023-03-21T12:26:59;17.00;58.60
29031;DHT22;16122;50.236;11.734;2023-03-21T12:40:30;17.00;58.50
29031;DHT22;16122;50.236;11.734;2023-03-21T12:45:51;17.00;58.50
29031;DHT22;16122;50.236;11.734;2023-03-21T12:50:58;17.10;58.60
29031;DHT22;16122;50.236;11.734;2023-03-21T12:54:03;17.10;58.60
29031;DHT22;16122;50.236;11.734;2023-03-21T12:56:46;17.10;58.50
29031;DHT22;16122;50.236;11.734;2023-03-21T13:01:52;17.10;58.60
29031;DHT22;16122;50.236;11.734;2023-03-21T13:04:55;17.10;58.60
29031;DHT22;16122;50.236;11.734;2023-03-21T13:07:23;17.10;58.60
29031;DHT22;16122;50.236;11.734;2023-03-21T13:09:49;17.10;58.60
29031;DHT22;16122;50.236;11.734;2023-03-21T13:12:25;17.10;58.60
29031;DHT22;16122;50.236;11.734;2023-03-21T13:21:04;17.10;58.50
29031;DHT22;16122;50.236;11.734;2023-03-21T13:23:36;17.10;58.40
29031;DHT22;16122;50.236;11.734;2023-03-21T13:26:03;17.10;58.20
29031;DHT22;16122;50.236;11.734;2023-03-21T13:28:38;17.10;58.10
29031;DHT22;16122;50.236;11.734;2023-03-21T13:31:14;17.10;58.10
29031;DHT22;16122;50.236;11.734;2023-03-21T13:33:42;17.10;58.10
29031;DHT22;16122;50.236;11.734;2023-03-21T13:36:16;17.10;58.10
29031;DHT22;16122;50.236;11.734;2023-03-21T13:38:49;17.10;58.10
29031;DHT22;16122;50.236;11.734;2023-03-21T13:41:26;17.10;58.10
29031;DHT22;16122;50.236;11.734;2023-03-21T13:55:45;17.10;57.80
29031;DHT22;16122;50.236;11.734;2023-03-21T14:01:36;17.10;58.10
29031;DHT22;16122;50.236;11.734;2023-03-21T14:06:53;17.10;57.80
29031;DHT22;16122;50.236;11.734;2023-03-21T14:09:32;17.10;56.20
29031;DHT22;16122;50.236;11.734;2023-03-21T14:11:59;17.10;56.30
29031;DHT22;16122;50.236;11.734;2023-03-21T14:14:33;17.10;57.00
29031;DHT22;16122;50.236;11.734;2023-03-21T14:17:00;17.00;57.20
29031;DHT22;16122;50.236;11.734;2023-03-21T14:19:30;17.10;57.50
29031;DHT22;16122;50.236;11.734;2023-03-21T14:21:57;17.10;57.80
29031;DHT22;16122;50.236;11.734;2023-03-21T14:24:23;17.10;58.00
29031;DHT22;16122;50.236;11.734;2023-03-21T14:26:52;17.10;58.20
29031;DHT22;16122;50.236;11.734;2023-03-21T14:29:38;17.10;58.40
29031;DHT22;16122;50.236;11.734;2023-03-21T14:32:05;17.10;58.60
29031;DHT22;16122;50.236;11.734;2023-03-21T14:34:32;17.10;58.70
29031;DHT22;16122;50.236;11.734;2023-03-21T14:36:59;17.10;58.60
29031;DHT22;16122;50.236;11.734;2023-03-21T14:39:30;17.10;58.60
29031;DHT22;16122;50.236;11.734;2023-03-21T14:42:10;17.10;58.60
29031;DHT22;16122;50.236;11.734;2023-03-21T14:44:41;17.10;58.60
29031;DHT22;16122;50.236;11.734;2023-03-21T14:47:19;17.10;58.70
29031;DHT22;16122;50.236;11.734;2023-03-21T14:49:45;17.10;58.70
29031;DHT22;16122;50.236;11.734;2023-03-21T14:52:17;17.10;58.70
29031;DHT22;16122;50.236;11.734;2023-03-21T14:54:46;17.10;58.60
29031;DHT22;16122;50.236;11.734;2023-03-21T14:57:17;17.10;58.50
29031;DHT22;16122;50.236;11.734;2023-03-21T14:59:47;17.10;58.40
29031;DHT22;16122;50.236;11.734;2023-03-21T15:02:22;17.10;58.40
29031;DHT22;16122;50.236;11.734;2023-03-21T15:04:52;17.10;58.40
29031;DHT22;16122;50.236;11.734;2023-03-21T15:07:28;17.10;58.40
29031;DHT22;16122;50.236;11.734;2023-03-21T15:09:58;17.10;58.40
29031;DHT22;16122;50.236;11.734;2023-03-21T15:12:25;17.10;58.40
29031;DHT22;16122;50.236;11.734;2023-03-21T15:14:51;17.10;58.40
29031;DHT22;16122;50.236;11.734;2023-03-21T15:17:18;17.10;58.40
29031;DHT22;16122;50.236;11.734;2023-03-21T15:19:45;17.10;58.40
29031;DHT22;16122;50.236;11.734;2023-03-21T15:22:27;17.10;58.40
29031;DHT22;16122;50.236;11.734;2023-03-21T15:25:02;17.10;58.40
29031;DHT22;16122;50.236;11.734;2023-03-21T15:27:32;17.10;58.40
29031;DHT22;16122;50.236;11.734;2023-03-21T15:29:59;17.10;58.40
29031;DHT22;16122;50.236;11.734;2023-03-21T15:32:26;17.10;58.40
29031;DHT22;16122;50.236;11.734;2023-03-21T15:34:54;17.10;58.40
29031;DHT22;16122;50.236;11.734;2023-03-21T15:37:27;17.10;58.40
29031;DHT22;16122;50.236;11.734;2023-03-21T15:40:04;17.10;58.40
29031;DHT22;16122;50.236;11.734;2023-03-21T15:42:37;17.10;58.40
29031;DHT22;16122;50.236;11.734;2023-03-21T15:45:18;17.10;58.40
29031;DHT22;16122;50.236;11.734;2023-03-21T15:52:51;17.10;58.40
29031;DHT22;16122;50.236;11.734;2023-03-21T15:56:03;17.10;58.30
29031;DHT22;16122;50.236;11.734;2023-03-21T15:58:24;17.10;58.30
29031;DHT22;16122;50.236;11.734;2023-03-21T16:01:01;17.10;58.40
29031;DHT22;16122;50.236;11.734;2023-03-21T16:03:33;17.10;58.30
29031;DHT22;16122;50.236;11.734;2023-03-21T16:06:15;17.10;58.30
29031;DHT22;16122;50.236;11.734;2023-03-21T16:09:02;17.10;58.40
29031;DHT22;16122;50.236;11.734;2023-03-21T16:11:41;17.10;58.30
29031;DHT22;16122;50.236;11.734;2023-03-21T16:14:07;17.10;58.30
29031;DHT22;16122;50.236;11.734;2023-03-21T16:16:34;17.10;58.30
29031;DHT22;16122;50.236;11.734;2023-03-21T16:19:01;17.10;58.30
29031;DHT22;16122;50.236;11.734;2023-03-21T16:25:15;17.10;58.30
29031;DHT22;16122;50.236;11.734;2023-03-21T16:27:41;17.00;58.10
29031;DHT22;16122;50.236;11.734;2023-03-21T16:30:07;17.00;57.90
29031;DHT22;16122;50.236;11.734;2023-03-21T16:32:33;17.00;57.90
29031;DHT22;16122;50.236;11.734;2023-03-21T16:34:59;17.00;57.70
29031;DHT22;16122;50.236;11.734;2023-03-21T16:37:25;17.00;57.60
29031;DHT22;16122;50.236;11.734;2023-03-21T16:39:51;17.00;57.40
29031;DHT22;16122;50.236;11.734;2023-03-21T16:42:17;17.00;57.40
29031;DHT22;16122;50.236;11.734;2023-03-21T16:44:43;17.00;57.30
29031;DHT22;16122;50.236;11.734;2023-03-21T16:47:18;17.00;57.20
29031;DHT22;16122;50.236;11.734;2023-03-21T16:49:44;17.00;57.20
29031;DHT22;16122;50.236;11.734;2023-03-21T16:52:12;17.00;57.20
29031;DHT22;16122;50.236;11.734;2023-03-21T16:54:40;17.00;57.30
29031;DHT22;16122;50.236;11.734;2023-03-21T16:57:08;17.00;57.30
29031;DHT22;16122;50.236;11.734;2023-03-21T16:59:41;17.00;57.40
29031;DHT22;16122;50.236;11.734;2023-03-21T17:02:14;17.00;57.60
29031;DHT22;16122;50.236;11.734;2023-03-21T17:04:43;17.00;57.70
29031;DHT22;16122;50.236;11.734;2023-03-21T17:07:11;17.00;57.80
29031;DHT22;16122;50.236;11.734;2023-03-21T17:09:41;17.00;57.80
29031;DHT22;16122;50.236;11.734;2023-03-21T17:12:17;17.00;57.90
29031;DHT22;16122;50.236;11.734;2023-03-21T17:14:44;17.00;58.00
29031;DHT22;16122;50.236;11.734;2023-03-21T17:17:14;17.00;57.80
29031;DHT22;16122;50.236;11.734;2023-03-21T17:19:40;17.00;57.80
29031;DHT22;16122;50.236;11.734;2023-03-21T17:22:06;17.00;57.80
29031;DHT22;16122;50.236;11.734;2023-03-21T17:24:33;17.00;57.80
29031;DHT22;16122;50.236;11.734;2023-03-21T17:27:01;17.00;57.80
29031;DHT22;16122;50.236;11.734;2023-03-21T17:29:27;17.00;57.00
29031;DHT22;16122;50.236;11.734;2023-03-21T17:31:53;16.90;57.40
29031;DHT22;16122;50.236;11.734;2023-03-21T17:34:19;16.90;57.60
29031;DHT22;16122;50.236;11.734;2023-03-21T17:36:46;16.90;57.60
29031;DHT22;16122;50.236;11.734;2023-03-21T17:39:24;16.90;57.70